createdAt,value
2019-05-26T00:01:09.643Z,14.07
2019-05-26T00:03:38.699Z,14.17
2019-05-26T00:06:07.601Z,14.20
2019-05-26T00:08:37.698Z,14.73
2019-05-26T00:11:06.677Z,14.47
2019-05-26T00:13:35.644Z,15.37
2019-05-26T00:16:04.612Z,15.40
2019-05-26T00:18:33.667Z,13.73
2019-05-26T00:21:02.607Z,14.57
2019-05-26T00:23:31.552Z,14.17
2019-05-26T00:26:00.533Z,12.50
2019-05-26T00:28:29.568Z,16.23
2019-05-26T00:30:58.634Z,14.27
2019-05-26T00:33:27.548Z,13.53
2019-05-26T00:35:56.521Z,14.90
2019-05-26T00:38:25.412Z,14.50
2019-05-26T00:40:54.335Z,13.60
2019-05-26T00:43:23.232Z,12.43
2019-05-26T00:45:52.126Z,13.10
2019-05-26T00:48:21.128Z,13.13
2019-05-26T00:50:50.093Z,13.23
2019-05-26T00:53:19.004Z,13.70
2019-05-26T00:55:47.979Z,11.63
2019-05-26T00:58:17.015Z,12.40
2019-05-26T01:00:45.904Z,12.47
2019-05-26T01:03:14.875Z,14.03
2019-05-26T01:05:43.786Z,12.73
2019-05-26T01:08:12.719Z,15.20
2019-05-26T01:10:41.619Z,21.47
2019-05-26T01:13:10.559Z,19.07
2019-05-26T01:15:39.467Z,15.87
2019-05-26T01:18:08.427Z,13.97
2019-05-26T01:20:37.359Z,14.73
2019-05-26T01:23:06.260Z,13.73
2019-05-26T01:25:35.159Z,15.80
2019-05-26T01:28:04.429Z,14.40
2019-05-26T01:30:37.186Z,15.43
2019-05-26T01:33:06.497Z,15.43
2019-05-26T01:35:37.088Z,15.60
2019-05-26T01:38:22.645Z,14.73
2019-05-26T01:40:38.842Z,14.23
2019-05-26T01:43:07.912Z,15.37
2019-05-26T01:45:36.804Z,17.97
2019-05-26T01:48:06.517Z,18.63
2019-05-26T01:50:35.476Z,19.80
2019-05-26T01:53:04.757Z,19.63
2019-05-26T01:55:35.209Z,18.53
2019-05-26T01:58:04.405Z,18.17
2019-05-26T02:00:34.429Z,18.03
2019-05-26T02:03:03.392Z,18.50
2019-05-26T02:05:32.464Z,17.40
2019-05-26T02:08:01.436Z,18.67
2019-05-26T02:10:30.431Z,21.37
2019-05-26T02:12:59.470Z,19.40
2019-05-26T02:15:28.610Z,18.60
2019-05-26T02:17:57.503Z,21.33
2019-05-26T02:20:26.502Z,23.33
2019-05-26T02:22:55.392Z,20.63
2019-05-26T02:25:24.462Z,21.10
2019-05-26T02:27:53.388Z,21.30
2019-05-26T02:30:22.349Z,21.60
2019-05-26T02:32:51.321Z,22.93
2019-05-26T02:35:20.290Z,22.20
2019-05-26T02:37:49.186Z,21.53
2019-05-26T02:40:18.610Z,24.30
2019-05-26T02:42:47.501Z,24.63
2019-05-26T02:45:17.352Z,24.50
2019-05-26T02:47:46.727Z,22.77
2019-05-26T02:50:16.352Z,23.00
2019-05-26T02:52:45.245Z,23.20
2019-05-26T02:55:15.146Z,23.20
2019-05-26T02:57:44.108Z,24.27
2019-05-26T03:00:14.077Z,25.10
2019-05-26T03:02:43.548Z,24.90
2019-05-26T03:05:13.246Z,24.27
2019-05-26T03:07:44.224Z,23.30
2019-05-26T03:10:13.572Z,22.93
2019-05-26T03:12:42.838Z,23.00
2019-05-26T03:15:13.414Z,22.10
2019-05-26T03:17:42.656Z,24.40
2019-05-26T03:20:13.181Z,23.77
2019-05-26T03:22:42.683Z,24.27
2019-05-26T03:25:12.913Z,26.43
2019-05-26T03:27:41.882Z,26.17
2019-05-26T03:30:10.872Z,24.03
2019-05-26T03:32:39.851Z,25.60
2019-05-26T03:35:08.964Z,23.80
2019-05-26T03:37:37.968Z,26.10
2019-05-26T03:40:08.515Z,26.33
2019-05-26T03:42:37.420Z,31.17
2019-05-26T03:45:06.785Z,30.17
2019-05-26T03:47:36.670Z,31.20
2019-05-26T03:50:06.597Z,30.97
2019-05-26T03:52:35.550Z,27.43
2019-05-26T03:55:06.016Z,26.03
2019-05-26T03:57:34.978Z,27.10
2019-05-26T04:00:07.202Z,23.83
2019-05-26T04:02:36.098Z,25.93
2019-05-26T04:05:08.219Z,28.00
2019-05-26T04:07:37.121Z,28.27
2019-05-26T04:10:06.640Z,26.40
2019-05-26T04:12:35.582Z,28.17
2019-05-26T04:15:07.556Z,25.27
2019-05-26T04:17:36.502Z,26.10
2019-05-26T04:20:06.608Z,22.90
2019-05-26T04:22:35.616Z,25.37
2019-05-26T04:25:04.981Z,23.03
2019-05-26T04:27:33.962Z,23.37
2019-05-26T04:30:03.234Z,24.80
2019-05-26T04:32:33.202Z,27.70
2019-05-26T04:35:02.261Z,27.60
2019-05-26T04:37:31.307Z,26.03
2019-05-26T04:40:00.197Z,25.43
2019-05-26T04:42:29.092Z,25.27
2019-05-26T04:44:58.027Z,23.77
2019-05-26T04:47:26.913Z,23.40
2019-05-26T04:49:55.815Z,23.20
2019-05-26T04:52:24.755Z,23.57
2019-05-26T04:54:53.728Z,23.40
2019-05-26T04:57:22.621Z,23.97
2019-05-26T04:59:51.536Z,23.13
2019-05-26T05:02:20.484Z,25.67
2019-05-26T05:04:49.414Z,24.47
2019-05-26T05:07:18.327Z,24.53
2019-05-26T05:09:47.219Z,25.10
2019-05-26T05:12:16.121Z,26.30
2019-05-26T05:14:45.052Z,27.60
2019-05-26T05:17:13.954Z,26.60
2019-05-26T05:19:42.863Z,28.33
2019-05-26T05:22:11.796Z,26.80
2019-05-26T05:24:40.690Z,26.03
2019-05-26T05:27:09.589Z,26.17
2019-05-26T05:29:38.520Z,24.27
2019-05-26T05:32:07.416Z,23.07
2019-05-26T05:34:36.327Z,23.67
2019-05-26T05:37:05.287Z,24.07
2019-05-26T05:39:34.182Z,22.40
2019-05-26T05:42:03.302Z,22.67
2019-05-26T05:44:32.196Z,22.37
2019-05-26T05:47:01.106Z,21.23
2019-05-26T05:49:30.085Z,22.33
2019-05-26T05:51:58.974Z,20.70
2019-05-26T05:54:27.871Z,23.10
2019-05-26T05:56:57.864Z,20.57
2019-05-26T05:59:26.879Z,21.30
2019-05-26T06:01:55.800Z,21.93
2019-05-26T06:04:26.277Z,22.57
2019-05-26T06:06:55.177Z,21.23
2019-05-26T06:09:24.065Z,22.43
2019-05-26T06:11:56.659Z,19.87
2019-05-26T06:14:23.681Z,20.90
2019-05-26T06:16:52.783Z,20.30
2019-05-26T06:19:21.746Z,19.00
2019-05-26T06:21:50.729Z,20.13
2019-05-26T06:24:19.729Z,17.80
2019-05-26T06:26:48.629Z,15.80
2019-05-26T06:29:17.528Z,16.77
2019-05-26T06:31:46.576Z,17.07
2019-05-26T06:34:15.615Z,15.07
2019-05-26T06:36:44.517Z,17.37
2019-05-26T06:39:13.439Z,16.13
2019-05-26T06:41:42.332Z,14.27
2019-05-26T06:44:11.224Z,16.30
2019-05-26T06:46:40.149Z,15.67
2019-05-26T06:49:09.037Z,13.00
2019-05-26T06:51:37.933Z,12.20
2019-05-26T06:54:06.947Z,13.27
2019-05-26T06:56:35.843Z,13.33
2019-05-26T06:59:04.737Z,12.87
2019-05-26T07:01:33.664Z,12.10
2019-05-26T07:04:02.565Z,11.23
2019-05-26T07:06:31.463Z,10.97
2019-05-26T07:09:00.400Z,10.20
2019-05-26T07:11:29.293Z,9.77
2019-05-26T07:13:58.182Z,9.83
2019-05-26T07:16:37.559Z,9.33
2019-05-26T07:18:57.706Z,9.70
2019-05-26T07:21:26.609Z,9.20
2019-05-26T07:23:55.507Z,8.70
2019-05-26T07:26:24.410Z,10.17
2019-05-26T07:28:53.301Z,9.80
2019-05-26T07:31:22.199Z,9.50
2019-05-26T07:33:51.124Z,8.43
2019-05-26T07:36:20.088Z,9.47
2019-05-26T07:38:49.071Z,9.97
2019-05-26T07:41:18.074Z,10.07
2019-05-26T07:43:46.969Z,9.80
2019-05-26T07:46:15.874Z,9.30
2019-05-26T07:48:44.794Z,9.87
2019-05-26T07:51:13.865Z,9.43
2019-05-26T07:53:43.700Z,10.27
2019-05-26T07:56:12.660Z,10.10
2019-05-26T07:58:41.648Z,9.80
2019-05-26T08:01:10.541Z,9.80
2019-05-26T08:03:39.419Z,9.23
2019-05-26T08:06:08.337Z,9.90
2019-05-26T08:08:38.756Z,9.47
2019-05-26T08:11:07.658Z,8.50
2019-05-26T08:13:36.587Z,8.27
2019-05-26T08:16:05.484Z,7.90
2019-05-26T08:18:34.394Z,8.20
2019-05-26T08:21:03.335Z,9.57
2019-05-26T08:23:32.303Z,9.57
2019-05-26T08:26:01.254Z,9.67
2019-05-26T08:28:30.174Z,9.47
2019-05-26T08:30:59.061Z,10.03
2019-05-26T08:33:28.019Z,10.10
2019-05-26T08:35:56.944Z,9.53
2019-05-26T08:38:25.835Z,8.80
2019-05-26T08:40:54.807Z,9.23
2019-05-26T08:43:23.724Z,9.83
2019-05-26T08:45:52.684Z,9.37
2019-05-26T08:48:21.577Z,9.23
2019-05-26T08:50:50.497Z,9.70
2019-05-26T08:53:19.399Z,10.20
2019-05-26T08:55:48.300Z,10.07
2019-05-26T08:58:17.215Z,10.17
2019-05-26T09:00:46.097Z,9.47
2019-05-26T09:03:14.987Z,9.93
2019-05-26T09:05:43.895Z,10.20
2019-05-26T09:08:12.783Z,9.17
2019-05-26T09:10:41.682Z,10.33
2019-05-26T09:13:10.612Z,10.20
2019-05-26T09:15:40.076Z,9.83
2019-05-26T09:18:08.975Z,7.13
2019-05-26T09:20:37.971Z,6.77
2019-05-26T09:23:06.943Z,6.57
2019-05-26T09:25:35.822Z,7.90
2019-05-26T09:28:04.851Z,6.27
2019-05-26T09:30:33.792Z,7.97
2019-05-26T09:33:02.686Z,8.03
2019-05-26T09:35:32.683Z,8.00
2019-05-26T09:38:01.646Z,6.80
2019-05-26T09:40:30.608Z,7.77
2019-05-26T09:43:14.769Z,8.23
2019-05-26T09:45:30.263Z,7.03
2019-05-26T09:47:59.295Z,5.80
2019-05-26T09:50:28.213Z,5.57
2019-05-26T09:52:57.175Z,6.20
2019-05-26T09:55:26.180Z,5.43
2019-05-26T09:57:55.096Z,5.60
2019-05-26T10:00:24.420Z,5.70
2019-05-26T10:02:53.310Z,4.60
2019-05-26T10:05:22.238Z,4.90
2019-05-26T10:07:51.261Z,4.23
2019-05-26T10:10:20.215Z,3.43
2019-05-26T10:12:49.359Z,3.20
2019-05-26T10:15:18.337Z,3.07
2019-05-26T10:17:47.285Z,3.07
2019-05-26T10:20:16.259Z,3.37
2019-05-26T10:22:45.152Z,3.70
2019-05-26T10:25:14.173Z,4.13
2019-05-26T10:27:43.169Z,3.20
2019-05-26T10:30:12.536Z,3.83
2019-05-26T10:32:41.491Z,3.53
2019-05-26T10:35:11.179Z,3.53
2019-05-26T10:37:40.157Z,4.87
2019-05-26T10:40:09.120Z,4.30
2019-05-26T10:42:38.067Z,4.23
2019-05-26T10:45:07.946Z,3.17
2019-05-26T10:47:38.128Z,3.47
2019-05-26T10:50:07.564Z,4.47
2019-05-26T10:52:36.451Z,3.87
2019-05-26T10:55:06.025Z,3.57
2019-05-26T10:57:35.026Z,2.80
2019-05-26T11:00:04.981Z,2.90
2019-05-26T11:02:35.051Z,2.50
2019-05-26T11:05:05.485Z,2.50
2019-05-26T11:07:34.427Z,2.40
2019-05-26T11:10:04.421Z,2.40
2019-05-26T11:12:33.427Z,2.00
2019-05-26T11:15:02.402Z,2.40
2019-05-26T11:17:32.271Z,2.03
2019-05-26T11:20:01.165Z,2.07
2019-05-26T11:22:30.214Z,2.00
2019-05-26T11:24:59.112Z,1.83
2019-05-26T11:27:27.996Z,1.90
2019-05-26T11:29:56.979Z,1.67
2019-05-26T11:32:25.876Z,1.77
2019-05-26T11:35:01.660Z,1.63
2019-05-26T11:37:25.405Z,2.00
2019-05-26T11:39:54.356Z,1.50
2019-05-26T11:42:23.246Z,1.63
2019-05-26T11:44:52.188Z,1.50
2019-05-26T11:47:21.076Z,1.90
2019-05-26T11:49:49.976Z,1.40
2019-05-26T11:52:20.358Z,1.47
2019-05-26T11:54:49.370Z,1.90
2019-05-26T11:57:18.289Z,1.40
2019-05-26T11:59:47.562Z,1.77
2019-05-26T12:02:16.548Z,1.50
2019-05-26T12:04:45.447Z,1.60
2019-05-26T12:07:14.451Z,1.20
2019-05-26T12:09:43.402Z,1.50
2019-05-26T12:12:13.253Z,1.53
2019-05-26T12:14:42.160Z,1.70
2019-05-26T12:17:11.049Z,1.77
2019-05-26T12:19:39.942Z,2.00
2019-05-26T12:22:08.935Z,2.00
2019-05-26T12:24:37.808Z,1.90
2019-05-26T12:27:06.779Z,1.50
2019-05-26T12:29:35.706Z,1.40
2019-05-26T12:32:04.868Z,1.57
2019-05-26T12:34:33.754Z,1.30
2019-05-26T12:37:02.697Z,1.40
2019-05-26T12:39:31.580Z,1.70
2019-05-26T12:42:00.546Z,1.50
2019-05-26T12:44:29.532Z,1.60
2019-05-26T12:46:58.574Z,1.50
2019-05-26T12:49:28.029Z,1.40
2019-05-26T12:51:58.132Z,1.47
2019-05-26T12:54:27.552Z,2.10
2019-05-26T12:56:56.440Z,1.40
2019-05-26T12:59:25.339Z,1.37
2019-05-26T13:01:54.308Z,1.80
2019-05-26T13:04:23.323Z,1.70
2019-05-26T13:06:52.293Z,1.30
2019-05-26T13:09:22.329Z,1.60
2019-05-26T13:11:51.315Z,1.40
2019-05-26T13:14:20.308Z,1.87
2019-05-26T13:16:49.199Z,1.57
2019-05-26T13:19:18.095Z,1.10
2019-05-26T13:21:47.084Z,1.43
2019-05-26T13:24:18.599Z,1.03
2019-05-26T13:26:46.713Z,1.37
2019-05-26T13:29:15.617Z,1.23
2019-05-26T13:31:44.513Z,1.20
2019-05-26T13:34:13.419Z,1.40
2019-05-26T13:36:42.335Z,1.20
2019-05-26T13:39:11.229Z,1.30
2019-05-26T13:41:40.125Z,1.30
2019-05-26T13:44:09.068Z,1.30
2019-05-26T13:46:37.957Z,1.67
2019-05-26T13:49:06.918Z,1.53
2019-05-26T13:51:36.891Z,1.30
2019-05-26T13:54:05.782Z,1.60
2019-05-26T13:56:34.660Z,1.50
2019-05-26T13:59:03.872Z,1.50
2019-05-26T14:01:33.823Z,1.53
2019-05-26T14:04:04.047Z,1.37
2019-05-26T14:06:32.938Z,1.53
2019-05-26T14:09:02.344Z,1.80
2019-05-26T14:11:32.606Z,1.30
2019-05-26T14:14:01.667Z,1.50
2019-05-26T14:16:30.929Z,1.50
2019-05-26T14:19:01.431Z,1.90
2019-05-26T14:21:30.428Z,1.60
2019-05-26T14:23:59.305Z,1.50
2019-05-26T14:26:28.227Z,1.60
2019-05-26T14:28:57.133Z,1.40
2019-05-26T14:31:26.097Z,1.50
2019-05-26T14:33:55.180Z,1.40
2019-05-26T14:36:24.070Z,1.50
2019-05-26T14:38:52.957Z,1.80
2019-05-26T14:41:21.846Z,1.70
2019-05-26T14:43:50.832Z,1.63
2019-05-26T14:46:19.718Z,1.90
2019-05-26T14:48:48.609Z,2.27
2019-05-26T14:51:17.520Z,2.00
2019-05-26T14:53:46.416Z,1.97
2019-05-26T14:56:15.358Z,1.80
2019-05-26T14:58:44.290Z,1.83
2019-05-26T15:01:13.163Z,1.70
2019-05-26T15:03:42.041Z,1.83
2019-05-26T15:06:10.965Z,1.10
2019-05-26T15:08:40.043Z,2.57
2019-05-26T15:11:08.980Z,2.20
2019-05-26T15:13:37.906Z,2.67
2019-05-26T15:16:10.275Z,1.90
2019-05-26T15:18:37.464Z,2.30
2019-05-26T15:21:06.564Z,2.00
2019-05-26T15:23:35.725Z,1.83
2019-05-26T15:26:05.429Z,2.23
2019-05-26T15:28:34.613Z,2.47
2019-05-26T15:31:03.569Z,2.83
2019-05-26T15:33:32.458Z,2.40
2019-05-26T15:36:01.456Z,2.57
2019-05-26T15:38:42.399Z,2.27
2019-05-26T15:41:00.949Z,2.37
2019-05-26T15:43:29.877Z,2.10
2019-05-26T15:45:58.762Z,2.53
2019-05-26T15:48:27.653Z,2.53
2019-05-26T15:50:56.561Z,2.30
2019-05-26T15:53:25.439Z,2.20
2019-05-26T15:55:54.530Z,2.23
2019-05-26T15:58:23.499Z,2.33
2019-05-26T16:00:52.391Z,2.20
2019-05-26T16:03:21.389Z,2.40
2019-05-26T16:05:50.275Z,2.37
2019-05-26T16:08:19.197Z,2.43
2019-05-26T16:10:48.184Z,2.40
2019-05-26T16:13:17.186Z,2.33
2019-05-26T16:15:46.187Z,2.50
2019-05-26T16:18:15.169Z,2.50
2019-05-26T16:20:44.059Z,2.27
2019-05-26T16:23:12.966Z,2.20
2019-05-26T16:25:42.038Z,2.33
2019-05-26T16:28:11.055Z,1.80
2019-05-26T16:30:39.946Z,2.03
2019-05-26T16:33:08.869Z,2.07
2019-05-26T16:35:37.768Z,2.17
2019-05-26T16:38:06.642Z,2.57
2019-05-26T16:40:36.133Z,1.90
2019-05-26T16:43:05.098Z,2.00
2019-05-26T16:45:36.913Z,1.90
2019-05-26T16:48:04.667Z,2.33
2019-05-26T16:50:33.834Z,1.63
2019-05-26T16:53:02.766Z,1.80
2019-05-26T16:55:31.657Z,1.90
2019-05-26T16:58:00.571Z,1.90
2019-05-26T17:00:29.629Z,2.20
2019-05-26T17:02:58.508Z,1.90
2019-05-26T17:05:28.655Z,2.80
2019-05-26T17:07:57.553Z,2.47
2019-05-26T17:10:26.438Z,2.37
2019-05-26T17:12:56.300Z,2.10
2019-05-26T17:15:26.637Z,1.93
2019-05-26T17:17:55.642Z,2.00
2019-05-26T17:20:24.607Z,2.20
2019-05-26T17:22:53.489Z,2.80
2019-05-26T17:25:22.574Z,2.20
2019-05-26T17:27:51.534Z,2.00
2019-05-26T17:30:22.270Z,1.90
2019-05-26T17:32:51.576Z,1.90
2019-05-26T17:35:20.447Z,2.00
2019-05-26T17:37:49.327Z,2.10
2019-05-26T17:40:19.797Z,2.33
2019-05-26T17:42:48.688Z,1.77
2019-05-26T17:45:18.046Z,2.00
2019-05-26T17:47:46.977Z,2.17
2019-05-26T17:50:15.933Z,2.27
2019-05-26T17:52:44.818Z,1.87
2019-05-26T17:55:13.995Z,2.00
2019-05-26T17:57:42.963Z,1.90
2019-05-26T18:00:13.294Z,2.00
2019-05-26T18:02:42.280Z,1.80
2019-05-26T18:05:11.356Z,1.83
2019-05-26T18:07:40.820Z,1.63
2019-05-26T18:10:09.978Z,2.00
2019-05-26T18:12:38.932Z,1.90
2019-05-26T18:15:09.198Z,2.10
2019-05-26T18:17:47.125Z,2.23
2019-05-26T18:20:09.899Z,1.87
2019-05-26T18:22:38.945Z,2.00
2019-05-26T18:25:08.019Z,1.90
2019-05-26T18:27:36.910Z,2.10
2019-05-26T18:30:06.693Z,2.00
2019-05-26T18:32:35.658Z,1.73
2019-05-26T18:35:07.712Z,2.13
2019-05-26T18:37:37.760Z,2.10
2019-05-26T18:40:06.826Z,1.97
2019-05-26T18:42:35.728Z,2.00
2019-05-26T18:45:05.588Z,2.17
2019-05-26T18:47:34.653Z,1.77
2019-05-26T18:50:04.609Z,1.80
2019-05-26T18:52:33.656Z,2.13
2019-05-26T18:55:02.658Z,2.50
2019-05-26T18:57:31.609Z,2.30
2019-05-26T19:00:00.507Z,1.80
2019-05-26T19:02:29.424Z,2.13
2019-05-26T19:04:58.313Z,1.70
2019-05-26T19:07:27.240Z,2.33
2019-05-26T19:09:56.120Z,2.23
2019-05-26T19:12:25.018Z,2.00
2019-05-26T19:14:53.916Z,2.00
2019-05-26T19:17:22.915Z,2.03
2019-05-26T19:19:52.421Z,2.00
2019-05-26T19:22:22.490Z,1.80
2019-05-26T19:24:51.489Z,1.97
2019-05-26T19:27:20.391Z,2.43
2019-05-26T19:29:49.281Z,2.60
2019-05-26T19:32:18.188Z,1.90
2019-05-26T19:34:47.154Z,2.00
2019-05-26T19:37:16.040Z,2.20
2019-05-26T19:39:45.045Z,2.50
2019-05-26T19:42:14.062Z,2.47
2019-05-26T19:44:43.087Z,1.83
2019-05-26T19:47:12.014Z,2.10
2019-05-26T19:49:40.898Z,2.00
2019-05-26T19:52:09.869Z,2.00
2019-05-26T19:54:38.777Z,2.20
2019-05-26T19:57:07.886Z,2.27
2019-05-26T19:59:38.021Z,2.13
2019-05-26T20:02:17.841Z,2.27
2019-05-26T20:04:38.739Z,2.20
2019-05-26T20:07:07.762Z,2.53
2019-05-26T20:09:37.779Z,2.40
2019-05-26T20:12:07.654Z,2.50
2019-05-26T20:14:36.544Z,2.30
2019-05-26T20:17:06.703Z,2.80
2019-05-26T20:19:36.557Z,2.43
2019-05-26T20:22:05.521Z,2.50
2019-05-26T20:24:34.423Z,2.50
2019-05-26T20:27:03.429Z,2.20
2019-05-26T20:29:32.420Z,2.43
2019-05-26T20:32:01.381Z,2.77
2019-05-26T20:34:30.265Z,2.50
2019-05-26T20:36:59.163Z,2.90
2019-05-26T20:39:28.074Z,2.67
2019-05-26T20:41:56.957Z,2.63
2019-05-26T20:44:28.893Z,2.83
2019-05-26T20:46:57.786Z,2.40
2019-05-26T20:49:26.706Z,2.73
2019-05-26T20:51:55.670Z,2.47
2019-05-26T20:54:24.569Z,2.83
2019-05-26T20:56:53.717Z,2.50
2019-05-26T20:59:22.638Z,2.63
2019-05-26T21:01:51.568Z,2.90
2019-05-26T21:04:20.567Z,2.77
2019-05-26T21:06:49.463Z,2.90
2019-05-26T21:09:18.388Z,2.93
2019-05-26T21:11:48.103Z,3.00
2019-05-26T21:14:17.067Z,2.73
2019-05-26T21:16:46.017Z,2.57
2019-05-26T21:19:15.993Z,2.73
2019-05-26T21:21:44.952Z,2.50
2019-05-26T21:24:13.949Z,2.70
2019-05-26T21:26:42.906Z,3.07
2019-05-26T21:29:12.037Z,2.80
2019-05-26T21:31:41.109Z,3.13
2019-05-26T21:34:10.017Z,2.83
2019-05-26T21:36:38.914Z,2.97
2019-05-26T21:39:08.149Z,3.00
2019-05-26T21:41:37.043Z,2.73
2019-05-26T21:44:05.930Z,2.50
2019-05-26T21:46:34.868Z,2.53
2019-05-26T21:49:04.045Z,2.80
2019-05-26T21:51:33.008Z,2.60
2019-05-26T21:54:01.949Z,2.67
2019-05-26T21:56:30.854Z,2.57
2019-05-26T21:58:59.795Z,2.67
2019-05-26T22:01:28.745Z,2.77
2019-05-26T22:03:57.633Z,2.70
2019-05-26T22:06:26.605Z,2.53
2019-05-26T22:08:55.521Z,2.73
2019-05-26T22:11:24.412Z,3.17
2019-05-26T22:13:53.387Z,3.07
2019-05-26T22:16:22.296Z,2.50
2019-05-26T22:18:51.190Z,2.73
2019-05-26T22:21:20.081Z,2.97
2019-05-26T22:23:48.979Z,3.13
2019-05-26T22:26:17.872Z,3.33
2019-05-26T22:28:46.839Z,2.93
2019-05-26T22:31:15.772Z,3.30
2019-05-26T22:33:44.652Z,2.90
2019-05-26T22:36:13.544Z,3.00
2019-05-26T22:38:42.452Z,2.83
2019-05-26T22:41:11.343Z,3.20
2019-05-26T22:43:40.256Z,3.37
2019-05-26T22:46:09.141Z,3.70
2019-05-26T22:48:38.036Z,3.67
2019-05-26T22:51:06.929Z,3.43
2019-05-26T22:53:35.820Z,2.93
2019-05-26T22:56:04.781Z,3.70
2019-05-26T22:58:33.684Z,2.70
2019-05-26T23:01:02.581Z,2.90
2019-05-26T23:03:31.497Z,2.90
2019-05-26T23:06:00.447Z,2.80
2019-05-26T23:08:29.325Z,2.30
2019-05-26T23:10:58.225Z,3.33
2019-05-26T23:13:28.197Z,2.87
2019-05-26T23:15:57.081Z,2.83
2019-05-26T23:18:25.966Z,2.90
2019-05-26T23:20:54.863Z,2.63
2019-05-26T23:23:26.575Z,3.03
2019-05-26T23:25:55.485Z,2.63
2019-05-26T23:28:25.445Z,2.80
2019-05-26T23:30:54.340Z,3.50
2019-05-26T23:33:23.263Z,3.60
2019-05-26T23:35:52.151Z,3.47
2019-05-26T23:38:21.039Z,3.53
2019-05-26T23:40:49.965Z,3.73
2019-05-26T23:43:18.845Z,3.93
2019-05-26T23:45:47.742Z,3.90
2019-05-26T23:48:16.650Z,3.80
2019-05-26T23:50:45.543Z,3.83
2019-05-26T23:53:14.503Z,3.70
2019-05-26T23:55:43.425Z,4.40
2019-05-26T23:58:12.379Z,4.97
